Time;durP1;ratioP1;P1;durP2;ratioP2;P2;SDS_P1;SDS_P2;PMS_P1;PMS_P2;Temp;Humidity;BMP_temperature;BMP_pressure;BME280_temperature;BME280_humidity;BME280_pressure;Samples;Min_cycle;Max_cycle;Signal;HPM_P1;HPM_P2
2023/03/20 00:00:43;;;;;;;22.93;12.50;;;8.30;75.70;;;8.34;51.14;95282.84;5009192;28;20616;-57
2023/03/20 00:03:11;;;;;;;20.47;12.63;;;8.40;75.80;;;8.33;51.38;95276.75;4996136;28;21065;-56
2023/03/20 00:05:39;;;;;;;19.50;12.00;;;8.30;76.20;;;8.30;51.70;95278.75;5010172;28;20575;-57
2023/03/20 00:08:07;;;;;;;41.70;13.30;;;8.30;76.00;;;8.28;51.68;95275.44;5005107;28;20579;-57
2023/03/20 00:10:36;;;;;;;26.00;14.03;;;8.30;76.70;;;8.24;51.83;95270.44;4994318;28;20497;-56
2023/03/20 00:13:06;;;;;;;20.70;11.97;;;8.20;77.20;;;8.21;52.06;95268.03;5018806;28;20997;-55
2023/03/20 00:15:36;;;;;;;28.63;13.90;;;8.20;76.90;;;8.17;51.99;95266.59;4999185;28;20450;-55
2023/03/20 00:18:04;;;;;;;25.07;13.20;;;8.20;77.90;;;8.13;52.51;95259.91;4998890;28;20470;-55
2023/03/20 00:20:31;;;;;;;22.40;11.03;;;8.20;77.40;;;8.11;52.18;95266.22;5006579;28;20461;-56
2023/03/20 00:22:58;;;;;;;22.30;12.07;;;8.10;77.20;;;8.08;52.45;95262.84;5004221;28;20963;-54
2023/03/20 00:25:27;;;;;;;15.97;11.17;;;8.10;78.40;;;8.07;52.50;95260.34;4992341;28;20498;-56
2023/03/20 00:27:54;;;;;;;19.93;12.07;;;8.10;78.70;;;8.04;52.86;95261.44;5011357;28;21170;-56
2023/03/20 00:30:28;;;;;;;28.37;13.90;;;8.10;79.90;;;8.02;53.19;95257.25;5008926;28;20470;-55
2023/03/20 00:32:59;;;;;;;26.70;13.90;;;8.00;79.80;;;7.97;53.26;95260.22;5011616;28;21113;-55
2023/03/20 00:35:28;;;;;;;28.10;13.73;;;8.00;80.00;;;7.93;53.36;95255.31;5002931;28;20550;-57
2023/03/20 00:37:56;;;;;;;19.73;12.23;;;8.00;80.60;;;7.88;53.32;95251.28;5019157;28;20528;-55
2023/03/20 00:40:24;;;;;;;30.83;13.07;;;7.90;80.60;;;7.86;53.26;95257.56;5012398;28;20951;-53
2023/03/20 00:42:56;;;;;;;26.67;12.87;;;7.90;80.00;;;7.81;52.78;95255.28;4993631;28;20989;-55
2023/03/20 00:45:24;;;;;;;30.13;12.87;;;7.90;79.50;;;7.77;53.00;95253.00;5017256;28;20541;-58
2023/03/20 00:47:52;;;;;;;26.23;13.93;;;7.80;80.20;;;7.72;53.44;95255.97;5002212;28;20935;-56
2023/03/20 00:50:22;;;;;;;29.47;12.07;;;7.80;80.10;;;7.69;52.72;95256.19;5009495;28;20533;-55
2023/03/20 00:52:50;;;;;;;24.97;14.40;;;7.70;80.20;;;7.64;53.30;95246.06;5017831;28;20476;-56
2023/03/20 00:55:17;;;;;;;30.30;13.17;;;7.70;80.70;;;7.61;53.30;95250.69;5016950;28;20468;-57
2023/03/20 00:57:46;;;;;;;24.90;13.90;;;7.70;80.70;;;7.57;53.28;95241.38;5006067;28;20481;-55
2023/03/20 01:00:26;;;;;;;23.73;13.17;;;7.60;80.50;;;7.52;52.86;95234.69;5015270;28;20457;-56
2023/03/20 01:02:56;;;;;;;22.40;11.93;;;7.60;80.40;;;7.49;52.67;95244.56;5010248;28;20963;-55
2023/03/20 01:05:23;;;;;;;28.97;13.47;;;7.50;80.30;;;7.44;53.54;95230.97;5003758;28;20524;-57
2023/03/20 01:07:51;;;;;;;19.97;12.77;;;7.50;80.90;;;7.42;52.90;95244.19;5014471;28;20483;-55
2023/03/20 01:10:18;;;;;;;29.03;12.63;;;7.50;80.50;;;7.41;52.87;95236.44;5007643;28;20461;-55
2023/03/20 01:12:46;;;;;;;31.90;12.17;;;7.40;80.80;;;7.40;53.27;95229.53;5008770;28;20482;-58
2023/03/20 01:15:20;;;;;;;23.97;11.70;;;7.40;80.90;;;7.38;53.15;95229.63;4995573;28;20465;-55
2023/03/20 01:17:47;;;;;;;26.57;11.10;;;7.40;80.90;;;7.39;52.94;95228.69;5013916;28;20598;-56
2023/03/20 01:20:21;;;;;;;25.43;11.47;;;7.40;81.30;;;7.38;53.63;95221.78;5013926;28;20515;-56
2023/03/20 01:22:49;;;;;;;19.33;10.73;;;7.40;81.40;;;7.38;52.89;95226.19;5008953;28;21127;-55
2023/03/20 01:25:16;;;;;;;25.00;12.23;;;7.40;81.70;;;7.36;53.21;95223.69;5018345;28;20545;-56
2023/03/20 01:27:45;;;;;;;26.00;11.53;;;7.40;82.00;;;7.34;53.31;95220.31;5014922;28;20507;-55
2023/03/20 01:30:19;;;;;;;29.23;11.90;;;7.40;82.00;;;7.33;53.59;95223.91;5000387;28;20454;-55
2023/03/20 01:32:47;;;;;;;19.93;10.97;;;7.40;82.50;;;7.31;53.32;95229.25;5013654;28;20464;-55
2023/03/20 01:35:16;;;;;;;24.37;11.57;;;7.40;82.90;;;7.29;54.26;95232.91;5012021;28;20911;-57
2023/03/20 01:37:44;;;;;;;21.80;11.27;;;7.30;83.00;;;7.27;54.57;95229.59;5003929;28;20485;-56
2023/03/20 01:40:22;;;;;;;22.07;11.53;;;7.30;83.40;;;7.24;53.92;95230.63;5004080;28;20456;-57
2023/03/20 01:42:49;;;;;;;18.30;11.27;;;7.30;83.80;;;7.23;54.26;95235.97;5014617;28;20473;-56
2023/03/20 01:45:18;;;;;;;20.27;11.37;;;7.30;84.10;;;7.23;54.19;95243.81;5003255;28;20466;-57
2023/03/20 01:47:45;;;;;;;33.67;12.70;;;7.30;84.10;;;7.22;54.68;95243.00;5004229;28;20504;-57
2023/03/20 01:50:29;;;;;;;23.93;10.50;;;7.30;84.70;;;7.19;54.23;95248.44;5011040;28;20469;-56
2023/03/20 01:53:07;;;;;;;24.23;11.20;;;7.20;84.70;;;7.15;54.57;95242.59;4996646;28;20482;-59
2023/03/20 01:55:35;;;;;;;17.50;11.40;;;7.20;84.20;;;7.15;54.05;95241.75;5004010;28;21027;-56
2023/03/20 01:58:05;;;;;;;15.03;9.80;;;7.20;84.40;;;7.12;54.40;95239.38;5003184;28;21034;-57
2023/03/20 02:00:32;;;;;;;18.50;10.50;;;7.20;84.40;;;7.09;54.42;95240.41;5001960;28;20957;-56
2023/03/20 02:03:00;;;;;;;16.60;10.50;;;7.20;84.70;;;7.06;54.01;95232.78;4997321;28;20493;-56
2023/03/20 02:05:27;;;;;;;35.63;10.57;;;7.10;84.70;;;7.05;54.11;95235.50;5010051;28;20468;-57
2023/03/20 02:08:10;;;;;;;34.20;11.10;;;7.10;84.40;;;7.03;54.23;95230.38;5011721;28;20875;-56
2023/03/20 02:10:37;;;;;;;16.33;10.53;;;7.10;84.80;;;7.01;54.76;95234.91;4998415;28;20557;-56
2023/03/20 02:13:05;;;;;;;19.30;11.90;;;7.10;85.80;;;6.96;53.98;95222.16;5017918;28;20538;-57
2023/03/20 02:15:32;;;;;;;21.77;10.90;;;7.00;84.70;;;6.94;54.45;95238.88;4999726;28;20926;-56
2023/03/20 02:17:59;;;;;;;15.13;9.17;;;7.00;85.20;;;6.94;54.18;95238.88;4993883;28;20478;-56
2023/03/20 02:20:36;;;;;;;17.03;9.90;;;7.00;85.10;;;6.93;54.04;95239.84;5006801;28;20524;-57
2023/03/20 02:23:48;;;;;;;16.67;10.17;;;7.00;85.10;;;6.90;54.89;95235.66;5011888;28;20596;-57
2023/03/20 02:26:45;;;;;;;17.67;10.53;;;7.00;85.40;;;6.91;54.62;95244.31;4980236;28;20559;-54
2023/03/20 02:30:18;;;;;;;18.73;10.13;;;7.00;85.60;;;6.88;54.88;95247.16;5016558;28;20469;-55
2023/03/20 02:33:25;;;;;;;17.67;10.10;;;6.90;85.40;;;6.84;54.88;95240.50;4951129;28;20554;-55
2023/03/20 02:36:52;;;;;;;24.47;10.20;;;6.90;86.10;;;6.81;55.36;95238.91;5004884;28;20537;-56
2023/03/20 02:39:47;;;;;;;20.60;10.13;;;6.90;86.10;;;6.75;55.46;95240.16;5007268;28;20545;-56
2023/03/20 02:42:18;;;;;;;18.47;11.27;;;6.80;87.00;;;6.74;54.89;95232.44;5003134;28;20481;-53
2023/03/20 02:44:51;;;;;;;33.40;10.90;;;6.80;87.10;;;6.73;55.04;95228.16;5010031;28;20531;-55
2023/03/20 02:47:21;;;;;;;17.07;10.40;;;6.80;86.20;;;6.69;54.55;95222.31;5012701;28;20497;-56
2023/03/20 02:49:57;;;;;;;20.03;10.07;;;6.70;86.70;;;6.67;55.45;95237.25;5005552;28;20962;-52
2023/03/20 02:52:32;;;;;;;26.57;10.97;;;6.70;87.50;;;6.66;55.38;95226.91;5008793;28;21005;-56
2023/03/20 02:55:09;;;;;;;15.57;9.93;;;6.70;87.50;;;6.64;55.33;95232.25;5006440;28;20461;-55
2023/03/20 02:57:43;;;;;;;24.57;11.47;;;6.70;87.40;;;6.60;55.30;95230.78;4997632;28;20981;-56
2023/03/20 03:00:13;;;;;;;23.93;10.00;;;6.70;87.50;;;6.57;55.24;95231.03;5009722;28;20465;-54
2023/03/20 03:02:43;;;;;;;13.40;9.90;;;6.70;87.60;;;6.56;55.36;95229.34;5005071;28;20481;-56
2023/03/20 03:05:15;;;;;;;24.00;10.60;;;6.60;87.50;;;6.55;55.33;95225.91;5004429;28;20522;-56
2023/03/20 03:07:43;;;;;;;18.00;11.00;;;6.60;87.90;;;6.56;55.17;95234.56;5009865;28;20588;-56
2023/03/20 03:10:16;;;;;;;19.43;10.00;;;6.60;88.20;;;6.54;55.85;95226.84;5009474;28;21004;-54
2023/03/20 03:12:45;;;;;;;17.33;9.27;;;6.60;88.90;;;6.53;55.02;95226.94;4998407;28;20481;-56
2023/03/20 03:15:16;;;;;;;17.40;10.13;;;6.60;88.10;;;6.52;55.77;95230.50;4993596;28;20453;-54
2023/03/20 03:17:44;;;;;;;19.73;10.10;;;6.60;88.80;;;6.50;55.78;95229.78;5012199;28;20566;-56
2023/03/20 03:20:20;;;;;;;15.57;9.13;;;6.60;88.80;;;6.52;55.98;95226.13;5005449;28;20995;-56
2023/03/20 03:22:48;;;;;;;17.67;10.27;;;6.60;90.00;;;6.52;55.61;95223.50;4989805;28;20482;-54
2023/03/20 03:25:17;;;;;;;19.47;10.27;;;6.60;89.40;;;6.54;55.59;95226.84;5013123;28;20882;-56
2023/03/20 03:27:46;;;;;;;20.83;11.77;;;6.60;89.80;;;6.56;55.83;95218.88;5004999;28;20512;-56
2023/03/20 03:30:16;;;;;;;22.23;11.70;;;6.60;90.10;;;6.58;55.77;95235.28;4993816;28;21109;-55
2023/03/20 03:32:47;;;;;;;18.83;11.57;;;6.60;90.00;;;6.58;55.52;95227.44;5009461;28;20991;-55
2023/03/20 03:35:16;;;;;;;22.90;11.03;;;6.60;89.90;;;6.58;55.80;95230.91;5010804;28;20454;-54
2023/03/20 03:37:49;;;;;;;18.70;10.90;;;6.60;90.10;;;6.58;55.57;95227.44;5005354;28;20547;-54
2023/03/20 03:40:23;;;;;;;25.73;11.40;;;6.60;89.90;;;6.58;55.49;95233.53;5013387;28;20452;-55
2023/03/20 03:42:55;;;;;;;18.53;10.50;;;6.70;89.80;;;6.59;55.13;95229.97;5008509;28;20512;-56
2023/03/20 03:45:26;;;;;;;20.93;10.80;;;6.60;89.70;;;6.60;55.48;95222.94;5005629;28;20859;-56
2023/03/20 03:47:55;;;;;;;17.47;10.57;;;6.60;89.50;;;6.59;55.27;95224.72;4997980;28;20508;-57
2023/03/20 03:50:26;;;;;;;24.03;11.83;;;6.70;89.70;;;6.59;55.42;95224.72;5008945;28;21296;-57
2023/03/20 03:52:53;;;;;;;28.83;12.83;;;6.70;89.80;;;6.58;55.66;95223.06;5005976;28;20509;-55
2023/03/20 03:55:23;;;;;;;23.23;12.87;;;6.60;89.50;;;6.57;55.11;95217.97;5001134;28;20531;-56
2023/03/20 03:57:54;;;;;;;27.77;11.17;;;6.60;89.60;;;6.56;55.38;95208.44;5009741;28;20557;-56
2023/03/20 04:00:22;;;;;;;23.77;11.70;;;6.60;89.50;;;6.53;55.13;95208.66;5013452;28;20445;-57
2023/03/20 04:02:53;;;;;;;18.53;13.30;;;6.60;89.40;;;6.50;55.63;95214.91;5001708;28;20514;-55
2023/03/20 04:05:20;;;;;;;22.80;12.93;;;6.60;89.30;;;6.48;55.52;95218.59;5011317;28;20601;-55
2023/03/20 04:07:48;;;;;;;25.60;12.53;;;6.60;89.90;;;6.45;55.76;95215.22;5009789;28;20502;-57
2023/03/20 04:10:15;;;;;;;28.63;11.20;;;6.50;90.10;;;6.43;56.21;95206.69;5010059;28;20454;-55
2023/03/20 04:12:44;;;;;;;25.67;12.40;;;6.50;90.30;;;6.41;55.65;95205.97;5015646;28;20533;-55
2023/03/20 04:15:12;;;;;;;20.77;11.20;;;6.50;90.20;;;6.40;55.53;95203.44;5017104;28;20515;-55
2023/03/20 04:17:39;;;;;;;30.60;12.80;;;6.50;90.20;;;6.38;56.20;95205.31;5009459;28;20497;-57
2023/03/20 04:20:08;;;;;;;24.63;11.93;;;6.50;90.30;;;6.37;55.77;95188.00;5003901;28;20457;-60
2023/03/20 04:22:36;;;;;;;16.63;10.57;;;6.50;90.30;;;6.39;55.87;95194.75;5016839;28;20472;-56
2023/03/20 04:25:03;;;;;;;20.90;11.90;;;6.50;90.20;;;6.39;55.80;95199.97;5001867;28;20882;-56
2023/03/20 04:27:30;;;;;;;30.17;10.50;;;6.40;90.30;;;6.39;55.60;95202.59;5008085;28;20498;-55
2023/03/20 04:29:59;;;;;;;20.33;11.40;;;6.50;90.40;;;6.37;55.86;95201.88;5021156;28;20493;-56
2023/03/20 04:32:26;;;;;;;30.90;12.00;;;6.50;90.40;;;6.37;55.89;95209.72;5012452;28;20549;-54
2023/03/20 04:34:54;;;;;;;29.33;11.93;;;6.50;90.60;;;6.35;56.47;95205.53;4998148;28;20465;-55
2023/03/20 04:37:21;;;;;;;30.53;12.50;;;6.50;90.90;;;6.34;56.17;95209.09;5013876;28;20608;-57
2023/03/20 04:39:48;;;;;;;24.57;11.73;;;6.40;90.70;;;6.35;56.34;95216.81;5001629;28;20518;-56
2023/03/20 04:42:16;;;;;;;22.83;13.80;;;6.40;91.30;;;6.35;56.51;95218.59;5005358;28;20470;-56
2023/03/20 04:44:43;;;;;;;23.60;13.30;;;6.40;91.10;;;6.36;56.20;95230.72;5017079;28;20493;-54
2023/03/20 04:47:11;;;;;;;30.70;15.87;;;6.40;90.90;;;6.36;56.15;95223.69;5007961;28;20493;-58
2023/03/20 04:49:39;;;;;;;38.63;17.70;;;6.50;91.10;;;6.39;56.06;95230.50;5005678;28;20458;-56
2023/03/20 04:52:06;;;;;;;26.50;15.03;;;6.40;91.00;;;6.41;56.25;95231.22;5012468;28;20592;-55
2023/03/20 04:54:34;;;;;;;31.77;15.80;;;6.50;91.20;;;6.42;56.05;95232.91;5016793;28;20459;-57
2023/03/20 04:57:01;;;;;;;28.30;14.50;;;6.50;90.90;;;6.42;55.98;95238.97;5008813;28;20510;-56
2023/03/20 04:59:28;;;;;;;30.97;15.20;;;6.50;90.90;;;6.42;55.76;95249.41;5009253;28;20454;-57
2023/03/20 05:01:56;;;;;;;41.23;15.30;;;6.50;90.80;;;6.45;55.94;95249.19;5017501;28;21081;-57
2023/03/20 05:04:25;;;;;;;55.47;13.53;;;6.50;90.90;;;6.46;56.24;95237.00;5004806;28;20588;-56
2023/03/20 05:06:52;;;;;;;37.13;15.13;;;6.50;91.00;;;6.52;56.28;95247.03;5003382;28;20495;-56
2023/03/20 05:09:19;;;;;;;48.93;15.20;;;6.60;91.10;;;6.54;56.16;95247.75;5011987;28;20475;-57
2023/03/20 05:11:46;;;;;;;29.77;15.13;;;6.60;91.30;;;6.56;56.32;95251.06;5011160;28;20489;-55
2023/03/20 05:14:14;;;;;;;40.10;16.80;;;6.60;91.30;;;6.60;56.38;95251.69;4995899;28;20462;-56
2023/03/20 05:16:41;;;;;;;27.33;15.60;;;6.60;91.60;;;6.64;56.55;95253.16;5006587;28;20500;-55
2023/03/20 05:19:08;;;;;;;36.13;14.87;;;6.70;91.70;;;6.69;56.71;95256.28;5010359;28;20461;-56
2023/03/20 05:21:37;;;;;;;28.57;14.63;;;6.70;91.50;;;6.74;56.92;95253.34;5006869;28;20489;-58
2023/03/20 05:24:05;;;;;;;35.47;14.43;;;6.80;91.60;;;6.79;56.88;95251.28;4998383;28;20573;-55
2023/03/20 05:26:32;;;;;;;29.53;14.07;;;6.80;91.80;;;6.83;56.76;95257.94;5007515;28;20468;-53
2023/03/20 05:29:00;;;;;;;21.00;12.93;;;6.90;91.80;;;6.88;56.75;95248.00;5004265;28;20612;-56
2023/03/20 05:31:27;;;;;;;35.83;13.83;;;6.90;91.70;;;6.94;56.32;95249.34;5002130;28;20547;-57
2023/03/20 05:33:54;;;;;;;37.27;15.43;;;7.00;91.70;;;7.03;56.20;95247.88;5016458;28;21156;-58
2023/03/20 05:36:22;;;;;;;44.90;14.77;;;7.00;91.50;;;7.14;56.58;95245.31;5003111;28;20460;-55
2023/03/20 05:38:50;;;;;;;30.93;13.87;;;7.10;91.70;;;7.25;55.80;95252.38;5004969;28;20470;-56
2023/03/20 05:41:18;;;;;;;29.40;15.90;;;7.20;91.60;;;7.35;56.38;95256.03;5009960;28;20455;-56
2023/03/20 05:43:45;;;;;;;36.00;16.47;;;7.30;91.60;;;7.45;56.38;95254.44;5003864;28;20509;-55
2023/03/20 05:46:12;;;;;;;29.27;14.93;;;7.50;91.70;;;7.52;55.33;95255.63;4994981;28;20460;-56
2023/03/20 05:48:40;;;;;;;40.33;14.70;;;7.50;91.20;;;7.62;55.86;95254.97;5006282;28;21120;-57
2023/03/20 05:51:07;;;;;;;28.97;14.33;;;7.60;91.20;;;7.75;55.50;95254.91;5002697;28;20461;-55
2023/03/20 05:53:34;;;;;;;35.73;15.60;;;7.70;91.10;;;7.85;55.21;95256.75;5005219;28;20851;-56
2023/03/20 05:56:04;;;;;;;43.93;15.87;;;7.80;90.90;;;7.96;55.39;95258.53;5002094;28;21148;-57
2023/03/20 05:58:31;;;;;;;40.07;15.03;;;7.90;90.70;;;8.08;54.90;95257.63;5016869;28;20473;-56
2023/03/20 06:00:58;;;;;;;34.10;15.57;;;8.00;90.60;;;8.21;54.96;95259.31;5000863;28;20618;-57
2023/03/20 06:03:26;;;;;;;38.80;19.77;;;8.20;90.40;;;8.35;53.98;95259.13;5003476;28;20504;-57
2023/03/20 06:05:53;;;;;;;52.30;19.07;;;8.30;90.20;;;8.49;54.42;95257.25;5015093;28;20529;-56
2023/03/20 06:08:20;;;;;;;55.23;22.47;;;8.40;90.00;;;8.58;54.23;95257.41;5013968;28;20507;-56
2023/03/20 06:10:50;;;;;;;49.47;20.60;;;8.50;89.70;;;8.74;53.51;95261.47;4995280;28;20680;-55
2023/03/20 06:13:19;;;;;;;52.57;20.97;;;8.70;89.50;;;8.88;53.19;95260.41;5011696;28;20577;-56
2023/03/20 06:15:46;;;;;;;53.27;22.47;;;8.80;88.40;;;9.02;52.99;95265.38;5011738;28;20500;-55
2023/03/20 06:18:13;;;;;;;38.63;19.97;;;8.90;88.10;;;9.19;52.63;95255.38;4993862;28;20485;-54
2023/03/20 06:20:41;;;;;;;42.40;21.57;;;9.10;87.70;;;9.36;52.39;95248.75;5009005;28;20459;-57
2023/03/20 06:23:08;;;;;;;33.50;18.87;;;9.30;86.90;;;9.43;52.03;95249.94;5003058;28;20568;-57
2023/03/20 06:25:35;;;;;;;40.23;21.63;;;9.30;85.40;;;9.45;52.03;95248.00;5006482;28;20458;-55
2023/03/20 06:28:03;;;;;;;61.80;28.27;;;9.40;84.70;;;9.60;51.41;95252.00;5003429;28;20492;-54
2023/03/20 06:30:31;;;;;;;51.33;24.90;;;9.50;84.60;;;9.77;51.31;95255.91;5011197;28;20460;-56
2023/03/20 06:32:59;;;;;;;54.87;27.30;;;9.70;84.40;;;9.98;50.72;95260.38;4997363;28;20475;-56
2023/03/20 06:35:29;;;;;;;48.57;23.33;;;9.80;83.40;;;10.15;50.88;95256.34;5002541;28;20462;-57
2023/03/20 06:37:57;;;;;;;56.97;20.00;;;10.00;81.90;;;10.31;50.42;95264.59;5012806;28;20465;-57
2023/03/20 06:40:24;;;;;;;49.80;19.63;;;10.20;81.00;;;10.51;50.33;95259.50;5001125;28;21020;-55
2023/03/20 06:42:51;;;;;;;39.83;19.37;;;10.30;80.60;;;10.63;49.79;95261.09;4997836;28;20481;-55
2023/03/20 06:45:19;;;;;;;32.27;18.77;;;10.50;79.60;;;10.76;49.84;95263.50;5006970;28;20516;-55
2023/03/20 06:47:48;;;;;;;47.80;22.23;;;10.60;79.30;;;10.90;49.05;95259.69;5009734;28;21072;-55
2023/03/20 06:50:15;;;;;;;44.43;20.03;;;10.70;78.50;;;10.98;49.45;95251.13;4997113;28;20455;-57
2023/03/20 06:52:43;;;;;;;40.77;21.33;;;10.80;78.40;;;11.05;49.66;95257.53;5011997;28;20497;-57
2023/03/20 06:55:11;;;;;;;38.53;20.33;;;10.90;78.60;;;11.21;49.94;95255.22;5009620;28;20458;-56
2023/03/20 06:57:38;;;;;;;46.77;20.90;;;11.00;79.70;;;11.48;49.98;95251.16;5003468;28;20473;-58
2023/03/20 07:00:09;;;;;;;51.03;20.57;;;11.20;80.50;;;11.75;49.10;95242.56;5006339;28;20456;-54
2023/03/20 07:02:36;;;;;;;37.93;18.27;;;11.50;78.50;;;11.98;48.96;95255.53;5014501;28;20473;-57
2023/03/20 07:05:05;;;;;;;36.97;14.73;;;11.70;78.10;;;12.23;48.11;95253.28;5005584;28;20466;-56
2023/03/20 07:07:33;;;;;;;16.20;12.13;;;11.90;76.30;;;12.49;47.03;95246.44;5008139;28;21116;-56
2023/03/20 07:10:00;;;;;;;28.07;13.07;;;12.20;74.00;;;12.72;47.02;95230.28;5019685;28;20571;-57
2023/03/20 07:12:27;;;;;;;27.53;11.83;;;12.50;73.90;;;12.87;46.27;95238.53;5001357;28;20481;-56
2023/03/20 07:14:55;;;;;;;22.47;12.50;;;12.70;72.60;;;13.06;46.37;95238.47;4996733;28;20577;-55
2023/03/20 07:17:23;;;;;;;18.23;10.00;;;12.80;71.80;;;13.24;46.03;95235.03;5015556;28;20477;-55
2023/03/20 07:19:50;;;;;;;12.73;9.33;;;13.00;71.20;;;13.44;45.61;95230.50;5015516;28;20490;-56
2023/03/20 07:22:22;;;;;;;13.87;8.47;;;13.10;70.30;;;13.75;44.39;95238.91;5002021;28;20541;-56
2023/03/20 07:24:49;;;;;;;22.77;8.20;;;13.40;68.20;;;14.05;44.20;95239.53;5009388;28;20453;-57
2023/03/20 07:27:17;;;;;;;16.63;10.13;;;13.70;66.90;;;14.32;44.38;95243.88;5010233;28;20540;-55
2023/03/20 07:29:45;;;;;;;24.00;9.57;;;14.00;67.00;;;14.61;44.14;95242.81;5008310;28;20564;-56
2023/03/20 07:32:12;;;;;;;35.60;12.77;;;14.30;67.20;;;14.94;43.55;95240.34;5000031;28;20478;-57
2023/03/20 07:34:39;;;;;;;18.33;11.40;;;14.60;66.10;;;15.30;42.69;95237.53;5015354;28;21028;-54
2023/03/20 07:37:06;;;;;;;19.17;11.30;;;15.00;64.20;;;15.65;42.84;95237.47;5004972;28;20470;-57
2023/03/20 07:39:35;;;;;;;25.77;12.23;;;15.30;63.70;;;16.03;42.24;95241.38;4989993;28;20466;-56
2023/03/20 07:42:02;;;;;;;23.30;11.20;;;15.70;62.10;;;16.39;41.55;95241.06;5020771;28;21089;-58
2023/03/20 07:44:30;;;;;;;27.37;10.90;;;16.00;61.00;;;16.78;41.51;95235.03;5004980;28;20512;-57
2023/03/20 07:46:57;;;;;;;17.07;10.37;;;16.40;60.40;;;17.24;40.57;95230.94;5006064;28;20479;-57
2023/03/20 07:49:25;;;;;;;17.60;10.83;;;16.90;59.30;;;17.71;41.09;95238.06;5020382;28;20508;-56
2023/03/20 07:51:53;;;;;;;24.77;10.10;;;17.40;59.60;;;18.16;39.31;95235.63;5019161;28;20972;-57
2023/03/20 07:54:20;;;;;;;15.70;9.83;;;17.90;57.70;;;18.61;39.81;95237.41;5001430;28;20463;-55
2023/03/20 07:56:49;;;;;;;14.90;9.17;;;18.40;57.30;;;19.02;38.48;95232.72;5015935;28;20481;-57
2023/03/20 07:59:17;;;;;;;15.83;8.73;;;18.80;56.70;;;19.36;38.06;95237.50;5013235;28;20458;-55
2023/03/20 08:01:44;;;;;;;14.93;8.40;;;19.20;54.00;;;19.70;37.44;95236.06;5004572;28;20465;-59
2023/03/20 08:04:11;;;;;;;23.93;9.00;;;19.60;54.20;;;20.04;37.32;95232.75;5006206;28;20461;-58
2023/03/20 08:06:39;;;;;;;11.63;8.37;;;19.90;54.00;;;20.39;36.62;95230.22;5019506;28;20473;-53
2023/03/20 08:09:06;;;;;;;18.77;8.73;;;20.30;53.00;;;20.74;36.91;95229.50;5009213;28;20497;-57
2023/03/20 08:11:34;;;;;;;12.23;8.30;;;20.60;53.30;;;21.00;35.53;95225.38;4996440;28;20465;-58
2023/03/20 08:14:02;;;;;;;15.60;8.73;;;20.90;50.80;;;21.22;35.41;95223.44;5021104;28;20806;-56
2023/03/20 08:16:30;;;;;;;14.37;8.30;;;21.10;51.20;;;21.35;35.40;95222.69;5006466;28;20565;-56
2023/03/20 08:19:00;;;;;;;11.70;7.90;;;21.20;50.60;;;21.29;35.03;95227.00;5007290;28;20455;-56
2023/03/20 08:21:27;;;;;;;17.03;8.13;;;21.20;50.10;;;21.29;34.59;95227.81;5015739;28;20464;-56
2023/03/20 08:23:55;;;;;;;14.20;8.60;;;21.30;49.20;;;21.31;34.62;95230.28;5015876;28;20452;-57
2023/03/20 08:26:22;;;;;;;16.13;7.93;;;21.30;48.50;;;21.23;33.81;95228.59;5002591;28;20461;-54
2023/03/20 08:28:49;;;;;;;12.40;7.77;;;21.30;47.50;;;21.29;34.72;95229.66;5015013;28;20888;-55
2023/03/20 08:31:18;;;;;;;13.53;8.07;;;21.30;48.80;;;21.45;32.74;95229.31;5013850;28;20459;-59
2023/03/20 08:33:46;;;;;;;17.50;9.20;;;21.50;48.00;;;21.40;33.36;95223.75;5005236;28;20464;-56
2023/03/20 08:36:14;;;;;;;14.47;7.80;;;21.40;47.10;;;21.32;33.56;95229.28;5011301;28;20457;-57
2023/03/20 08:38:42;;;;;;;12.50;7.53;;;21.40;47.80;;;21.46;31.40;95225.63;5015815;28;20854;-53
2023/03/20 08:41:09;;;;;;;23.60;9.80;;;21.40;45.60;;;21.61;33.15;95235.41;5003604;28;20957;-57
2023/03/20 08:43:36;;;;;;;36.53;9.60;;;21.50;47.20;;;21.75;32.32;95229.09;5000762;28;20552;-57
2023/03/20 08:46:04;;;;;;;27.63;9.60;;;21.60;46.10;;;21.90;31.66;95228.09;5021867;28;20460;-57
2023/03/20 08:48:33;;;;;;;26.00;8.47;;;21.70;46.00;;;21.98;32.65;95230.59;5003137;28;20506;-54
2023/03/20 08:51:00;;;;;;;27.97;9.40;;;21.80;46.20;;;22.10;31.44;95223.59;5000834;28;20967;-57
2023/03/20 08:53:28;;;;;;;15.53;8.60;;;21.90;45.10;;;22.29;31.66;95227.38;5008846;28;20527;-55
2023/03/20 08:55:55;;;;;;;23.20;9.30;;;22.00;45.50;;;22.45;31.15;95222.66;5017459;28;20475;-58
2023/03/20 08:58:22;;;;;;;16.60;8.90;;;22.10;45.10;;;22.59;31.47;95221.66;4994828;28;20482;-57
2023/03/20 09:00:51;;;;;;;18.13;9.93;;;22.20;44.70;;;22.74;31.42;95222.25;5017483;28;20464;-55
2023/03/20 09:03:19;;;;;;;21.60;10.37;;;22.40;45.80;;;22.96;30.87;95221.19;5010913;28;20555;-57
2023/03/20 09:05:50;;;;;;;21.73;8.97;;;22.60;44.60;;;23.17;31.24;95212.13;5002970;28;21500;-57
2023/03/20 09:08:17;;;;;;;19.53;9.20;;;22.80;44.10;;;23.32;30.55;95207.31;5014731;28;20507;-57
2023/03/20 09:10:44;;;;;;;18.10;9.17;;;22.90;43.30;;;23.45;29.65;95212.66;5016432;28;20454;-57
2023/03/20 09:13:12;;;;;;;19.47;10.03;;;23.00;43.20;;;23.57;30.05;95202.06;5005829;28;20573;-56
2023/03/20 09:15:39;;;;;;;16.97;10.13;;;23.20;43.90;;;23.49;29.96;95207.69;4993839;28;20458;-54
2023/03/20 09:18:07;;;;;;;19.90;10.20;;;23.10;42.80;;;23.36;29.81;95200.50;5019826;28;20499;-57
2023/03/20 09:20:34;;;;;;;19.80;11.23;;;23.10;43.00;;;23.25;29.54;95201.16;5012336;28;21269;-57
2023/03/20 09:23:03;;;;;;;17.60;10.17;;;22.90;42.70;;;23.13;29.23;95198.31;5002530;28;20485;-57
2023/03/20 09:25:30;;;;;;;28.07;11.07;;;22.80;42.40;;;23.04;30.44;95189.63;5020100;28;20457;-56
2023/03/20 09:27:57;;;;;;;29.33;12.07;;;22.70;42.90;;;23.12;30.07;95188.59;5005354;28;20474;-56
2023/03/20 09:30:25;;;;;;;17.33;10.17;;;22.70;43.10;;;23.27;29.83;95177.63;5002964;28;21043;-57
2023/03/20 09:32:52;;;;;;;25.13;11.13;;;22.80;43.30;;;23.38;29.60;95171.59;5001070;28;21085;-57
2023/03/20 09:35:19;;;;;;;21.63;11.67;;;23.00;43.00;;;23.47;30.16;95174.88;5012179;28;20492;-57
2023/03/20 09:37:47;;;;;;;27.50;11.40;;;23.10;43.00;;;23.57;30.04;95172.53;4994531;28;20574;-58
2023/03/20 09:40:24;;;;;;;24.93;12.53;;;23.20;42.60;;;23.71;29.69;95167.09;5001464;28;20990;-55
2023/03/20 09:42:58;;;;;;;15.93;12.10;;;23.30;42.60;;;23.83;29.03;95164.53;5007146;28;20554;-56
2023/03/20 09:45:38;;;;;;;23.37;12.70;;;23.40;42.40;;;23.89;28.57;95159.19;5006483;28;20461;-55
2023/03/20 09:48:09;;;;;;;25.93;12.63;;;23.50;42.40;;;23.88;29.57;95152.16;4996071;28;20485;-55
2023/03/20 09:50:38;;;;;;;29.90;14.97;;;23.50;41.80;;;23.85;29.58;95146.41;5019924;28;20924;-58
2023/03/20 09:53:08;;;;;;;29.73;13.27;;;23.50;42.20;;;23.79;29.59;95148.03;4998046;28;20482;-56
2023/03/20 09:55:38;;;;;;;32.50;13.67;;;23.50;42.00;;;23.78;28.54;95139.16;4999638;28;21053;-57
2023/03/20 09:58:12;;;;;;;26.80;12.97;;;23.50;41.40;;;23.71;29.40;95135.69;5009746;28;20471;-56
2023/03/20 10:00:40;;;;;;;28.27;13.60;;;23.40;41.80;;;23.57;29.11;95124.19;5013190;28;20445;-58
2023/03/20 10:03:14;;;;;;;21.90;12.90;;;23.30;41.90;;;23.48;29.42;95127.34;4996635;28;20990;-56
2023/03/20 10:05:45;;;;;;;23.47;12.97;;;23.20;41.90;;;23.43;28.67;95120.75;5013337;28;20527;-55
2023/03/20 10:08:15;;;;;;;19.97;12.97;;;23.10;41.20;;;23.49;28.85;95102.97;5012302;28;20474;-57
2023/03/20 10:10:51;;;;;;;25.67;12.63;;;23.10;41.40;;;23.63;29.10;95106.41;4996721;28;20484;-54
2023/03/20 10:13:43;;;;;;;32.27;13.40;;;23.20;41.90;;;23.79;28.13;95100.50;5016412;28;20488;-54
2023/03/20 10:16:17;;;;;;;25.83;13.53;;;23.30;41.40;;;23.84;29.12;95102.56;5012258;28;20989;-55
2023/03/20 10:18:48;;;;;;;32.20;13.70;;;23.40;40.70;;;23.88;28.23;95101.13;5006466;28;20617;-57
2023/03/20 10:21:17;;;;;;;26.07;14.57;;;23.50;40.90;;;24.01;28.94;95096.69;5017239;28;20805;-56
2023/03/20 10:23:51;;;;;;;30.70;13.10;;;23.60;41.80;;;24.13;27.17;95097.63;5015547;28;20461;-55
2023/03/20 10:26:22;;;;;;;19.87;11.60;;;23.70;40.10;;;24.22;27.79;95085.56;5000756;28;20450;-57